Time;durP1;ratioP1;P1;durP2;ratioP2;P2;SDS_P1;SDS_P2;PMS_P1;PMS_P2;Temp;Humidity;BMP_temperature;BMP_pressure;BME280_temperature;BME280_humidity;BME280_pressure;Samples;Min_cycle;Max_cycle;Signal;HPM_P1;HPM_P2
2023/05/19 00:01:18;;;;;;;5.63;3.92;;;;;;;;;;5059338;28;20033;-76
2023/05/19 00:03:53;;;;;;;6.38;4.82;;;;;;;;;;5054393;28;20039;-75
2023/05/19 00:06:23;;;;;;;6.55;4.20;;;;;;;;;;5057034;28;20035;-75
2023/05/19 00:08:53;;;;;;;6.20;4.10;;;;;;;;;;5052119;28;20021;-76
2023/05/19 00:11:21;;;;;;;5.90;4.22;;;;;;;;;;5051697;28;20036;-75
2023/05/19 00:13:48;;;;;;;6.05;4.25;;;;;;;;;;5058065;28;20044;-76
2023/05/19 00:16:15;;;;;;;7.95;4.30;;;;;;;;;;5057990;28;20102;-76
2023/05/19 00:18:42;;;;;;;6.90;4.07;;;;;;;;;;5049132;28;20033;-75
2023/05/19 00:21:08;;;;;;;5.47;4.00;;;;;;;;;;5051858;28;20553;-76
2023/05/19 00:23:34;;;;;;;8.43;3.70;;;;;;;;;;5070884;28;20071;-75
2023/05/19 00:26:00;;;;;;;6.65;4.18;;;;;;;;;;5058182;28;20155;-76
2023/05/19 00:28:26;;;;;;;6.07;4.13;;;;;;;;;;5057969;28;20060;-77
2023/05/19 00:30:52;;;;;;;7.35;3.70;;;;;;;;;;5053621;28;20413;-76
2023/05/19 00:33:18;;;;;;;6.68;3.80;;;;;;;;;;5060994;28;20025;-76
2023/05/19 00:35:44;;;;;;;7.63;3.90;;;;;;;;;;5056369;28;20218;-76
2023/05/19 00:38:10;;;;;;;9.75;4.28;;;;;;;;;;5049222;28;20107;-76
2023/05/19 00:40:36;;;;;;;6.68;3.80;;;;;;;;;;5058874;28;20559;-77
2023/05/19 00:43:04;;;;;;;9.70;4.03;;;;;;;;;;5055987;28;20040;-76
2023/05/19 00:45:30;;;;;;;10.00;4.43;;;;;;;;;;5057900;28;20625;-76
2023/05/19 00:47:56;;;;;;;7.10;3.90;;;;;;;;;;5058125;28;20035;-76
2023/05/19 00:50:23;;;;;;;9.57;4.18;;;;;;;;;;5063477;28;20509;-74
2023/05/19 00:52:50;;;;;;;12.43;5.60;;;;;;;;;;5060795;28;20044;-75
2023/05/19 00:55:16;;;;;;;10.35;4.68;;;;;;;;;;5060372;28;20511;-75
2023/05/19 00:57:42;;;;;;;9.80;3.85;;;;;;;;;;5056856;28;20024;-75
2023/05/19 01:00:10;;;;;;;15.45;6.30;;;;;;;;;;5058585;28;20244;-76
2023/05/19 01:02:38;;;;;;;12.27;4.82;;;;;;;;;;5054708;28;20021;-76
2023/05/19 01:05:05;;;;;;;12.63;4.68;;;;;;;;;;5056128;28;20028;-76
2023/05/19 01:07:32;;;;;;;12.40;4.07;;;;;;;;;;5057523;28;20124;-76
2023/05/19 01:09:58;;;;;;;11.57;4.70;;;;;;;;;;5058245;28;20079;-76
2023/05/19 01:12:25;;;;;;;19.02;6.50;;;;;;;;;;5055351;28;20028;-75
2023/05/19 01:14:51;;;;;;;22.15;6.95;;;;;;;;;;5056713;28;20104;-76
2023/05/19 01:17:37;;;;;;;13.93;5.82;;;;;;;;;;5055377;28;20025;-76
2023/05/19 01:20:03;;;;;;;18.05;5.18;;;;;;;;;;5058956;28;20033;-75
2023/05/19 01:22:53;;;;;;;20.05;5.05;;;;;;;;;;5052796;28;20082;-76
2023/05/19 01:25:28;;;;;;;22.33;5.00;;;;;;;;;;5042807;28;20102;-76
2023/05/19 01:27:54;;;;;;;;;;;;;;;;;;5051553;28;20047;-76
2023/05/19 01:30:24;;;;;;;17.27;5.50;;;;;;;;;;5053576;28;19912;-76
2023/05/19 01:32:52;;;;;;;18.80;5.82;;;;;;;;;;5062339;28;20031;-75
2023/05/19 01:35:18;;;;;;;16.15;5.28;;;;;;;;;;5062476;28;20028;-76
2023/05/19 01:37:46;;;;;;;22.95;6.35;;;;;;;;;;5058799;28;21035;-75
2023/05/19 01:40:12;;;;;;;13.30;5.03;;;;;;;;;;5054887;28;20533;-75
2023/05/19 01:42:39;;;;;;;13.38;5.20;;;;;;;;;;5058612;28;20029;-76
2023/05/19 01:45:09;;;;;;;15.63;5.53;;;;;;;;;;5058241;28;20021;-76
2023/05/19 01:47:39;;;;;;;21.13;6.43;;;;;;;;;;5056990;28;20505;-75
2023/05/19 01:50:05;;;;;;;14.77;4.78;;;;;;;;;;5063684;28;20293;-75
2023/05/19 01:52:31;;;;;;;13.20;5.22;;;;;;;;;;5058344;28;20107;-76
2023/05/19 01:54:58;;;;;;;15.45;5.13;;;;;;;;;;5062795;28;20048;-76
2023/05/19 01:57:27;;;;;;;18.77;5.97;;;;;;;;;;5060049;28;20035;-76
2023/05/19 02:00:08;;;;;;;15.55;4.70;;;;;;;;;;5060423;28;20415;-75
2023/05/19 02:02:39;;;;;;;15.23;5.32;;;;;;;;;;5053380;28;20050;-77
2023/05/19 02:05:11;;;;;;;22.83;5.32;;;;;;;;;;5059883;28;20544;-76
2023/05/19 02:07:39;;;;;;;17.73;5.70;;;;;;;;;;5064809;28;20174;-76
2023/05/19 02:10:06;;;;;;;20.50;5.28;;;;;;;;;;5056619;28;20115;-77
2023/05/19 02:12:37;;;;;;;21.60;5.90;;;;;;;;;;5062358;28;20024;-75
2023/05/19 02:15:10;;;;;;;13.48;5.88;;;;;;;;;;5058278;28;20373;-75
2023/05/19 02:17:40;;;;;;;16.00;5.38;;;;;;;;;;5062874;28;20494;-76
2023/05/19 02:20:07;;;;;;;16.92;5.13;;;;;;;;;;5060266;28;20017;-76
2023/05/19 02:22:33;;;;;;;16.45;4.65;;;;;;;;;;5063605;28;20712;-76
2023/05/19 02:24:59;;;;;;;17.02;4.75;;;;;;;;;;5073553;28;20070;-75
2023/05/19 02:27:25;;;;;;;12.35;4.75;;;;;;;;;;5075895;28;20035;-76
2023/05/19 02:29:52;;;;;;;17.02;6.40;;;;;;;;;;5056653;28;20032;-76
2023/05/19 02:32:18;;;;;;;14.73;5.80;;;;;;;;;;5055211;28;20059;-76
2023/05/19 02:34:44;;;;;;;17.88;5.30;;;;;;;;;;5061641;28;20052;-76
2023/05/19 02:37:13;;;;;;;16.73;5.10;;;;;;;;;;5057725;28;20020;-76
2023/05/19 02:39:40;;;;;;;21.35;5.93;;;;;;;;;;5060116;28;20035;-76
2023/05/19 02:42:06;;;;;;;21.90;5.15;;;;;;;;;;5064041;28;20024;-76
2023/05/19 02:44:32;;;;;;;17.55;6.20;;;;;;;;;;5056803;28;20059;-76
2023/05/19 02:46:58;;;;;;;15.20;5.45;;;;;;;;;;5062158;28;20029;-75
2023/05/19 02:49:24;;;;;;;13.20;5.70;;;;;;;;;;5060482;28;20028;-77
2023/05/19 02:51:50;;;;;;;18.77;5.45;;;;;;;;;;5057760;28;20028;-76
2023/05/19 02:54:16;;;;;;;14.40;5.22;;;;;;;;;;5058466;28;20035;-75
2023/05/19 02:56:43;;;;;;;14.70;5.22;;;;;;;;;;5052014;28;20049;-76
2023/05/19 02:59:09;;;;;;;14.35;5.20;;;;;;;;;;5060740;28;20044;-77
2023/05/19 03:01:36;;;;;;;17.55;5.70;;;;;;;;;;5062690;28;20077;-76
2023/05/19 03:04:02;;;;;;;16.52;5.47;;;;;;;;;;5061699;28;20024;-77
2023/05/19 03:06:28;;;;;;;19.20;5.90;;;;;;;;;;5059042;28;20029;-76
2023/05/19 03:08:54;;;;;;;23.00;6.57;;;;;;;;;;5064388;28;20478;-76
2023/05/19 03:11:22;;;;;;;16.65;5.70;;;;;;;;;;5061342;28;20028;-75
2023/05/19 03:13:48;;;;;;;18.02;5.25;;;;;;;;;;5064020;28;20021;-76
2023/05/19 03:16:14;;;;;;;15.50;4.95;;;;;;;;;;5060333;28;20032;-75
2023/05/19 03:18:40;;;;;;;17.80;5.22;;;;;;;;;;5063857;28;20478;-75
2023/05/19 03:21:06;;;;;;;19.80;4.90;;;;;;;;;;5056701;28;20478;-75
2023/05/19 03:23:32;;;;;;;14.48;4.70;;;;;;;;;;5057921;28;20513;-76
2023/05/19 03:25:58;;;;;;;16.77;5.70;;;;;;;;;;5058586;28;20237;-76
2023/05/19 03:28:27;;;;;;;24.33;6.03;;;;;;;;;;5063467;28;20048;-76
2023/05/19 03:30:53;;;;;;;14.35;5.00;;;;;;;;;;5078015;28;20743;-75
2023/05/19 03:33:19;;;;;;;16.02;5.55;;;;;;;;;;5060806;28;20032;-76
2023/05/19 03:35:45;;;;;;;21.23;6.40;;;;;;;;;;5077356;28;20412;-76
2023/05/19 03:38:12;;;;;;;24.23;6.50;;;;;;;;;;5065654;28;20099;-76
2023/05/19 03:40:38;;;;;;;12.93;4.95;;;;;;;;;;5055256;28;20017;-75
2023/05/19 03:43:04;;;;;;;18.10;6.00;;;;;;;;;;5059172;28;20464;-75
2023/05/19 03:45:30;;;;;;;14.98;5.03;;;;;;;;;;5063930;28;20674;-76
2023/05/19 03:47:56;;;;;;;18.88;4.72;;;;;;;;;;5061581;28;20331;-75
2023/05/19 03:50:22;;;;;;;14.13;4.90;;;;;;;;;;5061598;28;20363;-75
2023/05/19 03:52:48;;;;;;;18.73;5.97;;;;;;;;;;5062967;28;20135;-75
2023/05/19 03:55:15;;;;;;;19.73;5.07;;;;;;;;;;5060279;28;20029;-76
2023/05/19 03:57:43;;;;;;;18.88;5.25;;;;;;;;;;5062201;28;20123;-75
2023/05/19 04:00:12;;;;;;;21.95;5.22;;;;;;;;;;5061464;28;20471;-76
2023/05/19 04:02:39;;;;;;;20.08;5.63;;;;;;;;;;5065490;28;20060;-76
2023/05/19 04:05:06;;;;;;;16.23;5.45;;;;;;;;;;5059278;28;20028;-76
2023/05/19 04:07:32;;;;;;;15.73;5.45;;;;;;;;;;5068605;28;20382;-75
2023/05/19 04:09:59;;;;;;;17.10;5.65;;;;;;;;;;5066978;28;20036;-76
2023/05/19 04:12:25;;;;;;;18.65;5.65;;;;;;;;;;5069151;28;20032;-76
2023/05/19 04:14:51;;;;;;;18.45;5.90;;;;;;;;;;5060873;28;20021;-76
2023/05/19 04:17:17;;;;;;;17.38;5.82;;;;;;;;;;5068448;28;20029;-76
2023/05/19 04:19:43;;;;;;;21.85;6.32;;;;;;;;;;5065435;28;20119;-76
2023/05/19 04:22:09;;;;;;;13.68;5.65;;;;;;;;;;5064187;28;20031;-76
2023/05/19 04:24:36;;;;;;;18.77;5.72;;;;;;;;;;5065571;28;20043;-76
2023/05/19 04:27:03;;;;;;;16.92;5.60;;;;;;;;;;5060001;28;20055;-76
2023/05/19 04:29:29;;;;;;;19.83;6.45;;;;;;;;;;5070255;28;20131;-75
2023/05/19 04:31:59;;;;;;;21.00;7.57;;;;;;;;;;5064565;28;20100;-76
2023/05/19 04:34:27;;;;;;;19.92;5.20;;;;;;;;;;5066569;28;20042;-75
2023/05/19 04:36:54;;;;;;;19.60;5.88;;;;;;;;;;5066476;28;20032;-75
2023/05/19 04:39:20;;;;;;;16.88;5.72;;;;;;;;;;5068205;28;20116;-74
2023/05/19 04:41:47;;;;;;;18.30;6.78;;;;;;;;;;5064118;28;20035;-75
2023/05/19 04:44:16;;;;;;;27.40;6.78;;;;;;;;;;5067487;28;20391;-75
2023/05/19 04:46:44;;;;;;;21.02;5.97;;;;;;;;;;5065289;28;20107;-75
2023/05/19 04:49:11;;;;;;;18.90;5.72;;;;;;;;;;5061119;28;20033;-75
2023/05/19 04:51:40;;;;;;;18.42;6.07;;;;;;;;;;5067762;28;20332;-75
2023/05/19 04:54:06;;;;;;;21.20;6.95;;;;;;;;;;5068737;28;20046;-74
2023/05/19 04:56:32;;;;;;;15.00;4.95;;;;;;;;;;5065489;28;20028;-75
2023/05/19 04:58:59;;;;;;;14.20;5.22;;;;;;;;;;5067307;28;20390;-75
2023/05/19 05:01:25;;;;;;;23.20;6.57;;;;;;;;;;5064942;28;20115;-75
2023/05/19 05:03:54;;;;;;;15.57;5.43;;;;;;;;;;5066696;28;20031;-75
2023/05/19 05:06:21;;;;;;;21.73;5.95;;;;;;;;;;5061211;28;20025;-74
2023/05/19 05:08:47;;;;;;;15.55;7.15;;;;;;;;;;5064555;28;20029;-75
2023/05/19 05:11:14;;;;;;;18.23;4.97;;;;;;;;;;5057364;28;20569;-75
2023/05/19 05:13:40;;;;;;;19.10;6.70;;;;;;;;;;5073508;28;20477;-76
2023/05/19 05:16:07;;;;;;;14.40;6.10;;;;;;;;;;5055075;28;20131;-75
2023/05/19 05:18:33;;;;;;;17.35;5.78;;;;;;;;;;5061194;28;20020;-75
2023/05/19 05:21:00;;;;;;;17.58;5.18;;;;;;;;;;5060691;28;20592;-75
2023/05/19 05:23:26;;;;;;;24.08;6.15;;;;;;;;;;5064399;28;20048;-75
2023/05/19 05:25:52;;;;;;;17.90;6.50;;;;;;;;;;5064208;28;20171;-75
2023/05/19 05:28:18;;;;;;;18.17;6.55;;;;;;;;;;5056467;28;20028;-75
2023/05/19 05:30:45;;;;;;;18.02;5.55;;;;;;;;;;5059519;28;20151;-75
2023/05/19 05:33:11;;;;;;;15.07;5.25;;;;;;;;;;5057536;28;20442;-76
2023/05/19 05:35:37;;;;;;;18.17;6.00;;;;;;;;;;5060494;28;20032;-75
2023/05/19 05:38:03;;;;;;;17.40;5.45;;;;;;;;;;5058134;28;20489;-75
2023/05/19 05:40:29;;;;;;;16.98;6.10;;;;;;;;;;5059872;28;20052;-75
2023/05/19 05:42:57;;;;;;;15.90;6.13;;;;;;;;;;5058904;28;20020;-76
2023/05/19 05:45:23;;;;;;;30.55;7.47;;;;;;;;;;5062313;28;20112;-75
2023/05/19 05:47:50;;;;;;;15.60;5.85;;;;;;;;;;5057116;28;20360;-74
2023/05/19 05:50:16;;;;;;;20.08;6.53;;;;;;;;;;5061574;28;20085;-74
2023/05/19 05:52:44;;;;;;;23.98;5.75;;;;;;;;;;5057838;28;20111;-74
2023/05/19 05:55:11;;;;;;;26.38;6.75;;;;;;;;;;5064497;28;20033;-75
2023/05/19 05:57:37;;;;;;;17.40;6.15;;;;;;;;;;5063056;28;20025;-74
2023/05/19 06:00:09;;;;;;;24.88;5.95;;;;;;;;;;5057595;28;20141;-74
2023/05/19 06:02:35;;;;;;;19.63;6.88;;;;;;;;;;5056567;28;20466;-74
2023/05/19 06:05:01;;;;;;;18.63;5.97;;;;;;;;;;5066356;28;20058;-76
2023/05/19 06:07:27;;;;;;;14.65;5.95;;;;;;;;;;5064216;28;20025;-75
2023/05/19 06:09:55;;;;;;;19.38;6.25;;;;;;;;;;5063246;28;20421;-75
2023/05/19 06:12:21;;;;;;;21.73;6.72;;;;;;;;;;5057426;28;20029;-74
2023/05/19 06:14:47;;;;;;;13.13;6.38;;;;;;;;;;5054280;28;20029;-75
2023/05/19 06:17:13;;;;;;;17.75;5.75;;;;;;;;;;5056909;28;20029;-76
2023/05/19 06:19:40;;;;;;;27.75;6.40;;;;;;;;;;5065410;28;20028;-74
2023/05/19 06:22:06;;;;;;;15.65;5.82;;;;;;;;;;5062049;28;20077;-75
2023/05/19 06:24:32;;;;;;;20.77;6.47;;;;;;;;;;5057660;28;20518;-74
2023/05/19 06:26:58;;;;;;;19.67;6.70;;;;;;;;;;5064156;28;20030;-76
2023/05/19 06:29:24;;;;;;;20.60;6.03;;;;;;;;;;5063538;28;20048;-75
2023/05/19 06:31:50;;;;;;;16.80;5.80;;;;;;;;;;5059911;28;20119;-75
2023/05/19 06:34:16;;;;;;;22.95;7.47;;;;;;;;;;5061619;28;20370;-76
2023/05/19 06:36:42;;;;;;;27.08;6.80;;;;;;;;;;5066207;28;20021;-75
2023/05/19 06:39:08;;;;;;;27.33;6.57;;;;;;;;;;5055640;28;21096;-75
2023/05/19 06:41:34;;;;;;;18.27;5.63;;;;;;;;;;5055795;28;20069;-75
2023/05/19 06:44:00;;;;;;;16.92;5.20;;;;;;;;;;5067782;28;20383;-75
2023/05/19 06:46:27;;;;;;;26.23;6.10;;;;;;;;;;5062332;28;20393;-75
2023/05/19 06:48:53;;;;;;;21.83;7.00;;;;;;;;;;5065103;28;20025;-75
2023/05/19 06:51:21;;;;;;;17.63;5.88;;;;;;;;;;5061580;28;20127;-74
2023/05/19 06:53:47;;;;;;;21.98;6.00;;;;;;;;;;5050637;28;20398;-74
2023/05/19 06:56:14;;;;;;;13.88;6.60;;;;;;;;;;5053627;28;20020;-74
2023/05/19 06:58:40;;;;;;;22.35;5.47;;;;;;;;;;5052330;28;20115;-74
2023/05/19 07:01:07;;;;;;;19.40;6.70;;;;;;;;;;5056039;28;20039;-74
2023/05/19 07:03:33;;;;;;;18.70;6.45;;;;;;;;;;5059085;28;20046;-75
2023/05/19 07:05:59;;;;;;;19.33;7.22;;;;;;;;;;5060137;28;20542;-75
2023/05/19 07:08:26;;;;;;;26.23;7.85;;;;;;;;;;5062514;28;20040;-75
2023/05/19 07:10:54;;;;;;;20.75;7.25;;;;;;;;;;5058002;28;20016;-74
2023/05/19 07:13:20;;;;;;;17.42;5.90;;;;;;;;;;5057562;28;20560;-74
2023/05/19 07:15:47;;;;;;;18.10;5.95;;;;;;;;;;5057679;28;20487;-75
2023/05/19 07:18:14;;;;;;;23.00;6.75;;;;;;;;;;5059669;28;20096;-73
2023/05/19 07:20:40;;;;;;;16.58;5.53;;;;;;;;;;5062184;28;20031;-73
2023/05/19 07:23:06;;;;;;;23.65;6.07;;;;;;;;;;5061746;28;20052;-74
2023/05/19 07:25:32;;;;;;;20.92;6.65;;;;;;;;;;5059315;28;20024;-75
2023/05/19 07:27:58;;;;;;;24.27;6.65;;;;;;;;;;5053372;28;20367;-75
2023/05/19 07:30:27;;;;;;;22.65;5.90;;;;;;;;;;5058552;28;20093;-75
2023/05/19 07:32:53;;;;;;;15.63;5.78;;;;;;;;;;5059759;28;20107;-74
2023/05/19 07:35:23;;;;;;;18.33;6.18;;;;;;;;;;5058980;28;20064;-75
2023/05/19 07:37:49;;;;;;;19.45;6.25;;;;;;;;;;5063423;28;20489;-75
2023/05/19 07:40:16;;;;;;;15.10;5.78;;;;;;;;;;5065854;28;20874;-75
2023/05/19 07:42:43;;;;;;;18.00;6.15;;;;;;;;;;5061714;28;20032;-76
2023/05/19 07:45:09;;;;;;;18.73;6.07;;;;;;;;;;5062533;28;20418;-74
2023/05/19 07:47:36;;;;;;;14.35;5.70;;;;;;;;;;5064667;28;20058;-75
2023/05/19 07:50:02;;;;;;;14.52;6.35;;;;;;;;;;5062827;28;20044;-75
2023/05/19 07:52:28;;;;;;;21.83;5.65;;;;;;;;;;5085866;28;20035;-76
2023/05/19 07:54:54;;;;;;;26.90;7.10;;;;;;;;;;5059336;28;20067;-75
2023/05/19 07:57:21;;;;;;;28.75;6.47;;;;;;;;;;5062613;28;20067;-74
2023/05/19 07:59:47;;;;;;;19.75;5.78;;;;;;;;;;5067277;28;20114;-74
2023/05/19 08:02:13;;;;;;;23.27;6.82;;;;;;;;;;5058601;28;20112;-75
2023/05/19 08:04:39;;;;;;;17.05;5.90;;;;;;;;;;5049233;28;20075;-75
2023/05/19 08:07:05;;;;;;;22.05;5.95;;;;;;;;;;5056800;28;20039;-76
2023/05/19 08:09:31;;;;;;;16.85;5.82;;;;;;;;;;5049335;28;20478;-75
2023/05/19 08:11:57;;;;;;;21.50;5.68;;;;;;;;;;5059595;28;20036;-75
2023/05/19 08:14:23;;;;;;;19.23;6.13;;;;;;;;;;5049233;28;20648;-75
2023/05/19 08:16:50;;;;;;;19.02;6.13;;;;;;;;;;5071597;28;20132;-73
2023/05/19 08:19:16;;;;;;;15.80;6.68;;;;;;;;;;5060047;28;20414;-75
2023/05/19 08:21:43;;;;;;;14.57;6.03;;;;;;;;;;5064292;28;20548;-76
2023/05/19 08:24:10;;;;;;;15.98;5.32;;;;;;;;;;5059197;28;20178;-74
2023/05/19 08:26:36;;;;;;;14.80;5.50;;;;;;;;;;5059640;28;20025;-72
2023/05/19 08:29:02;;;;;;;17.45;6.35;;;;;;;;;;5049727;28;20033;-75
2023/05/19 08:31:28;;;;;;;18.35;6.40;;;;;;;;;;5056645;28;20031;-74
2023/05/19 08:33:54;;;;;;;15.00;5.95;;;;;;;;;;5067747;28;20470;-75
2023/05/19 08:36:20;;;;;;;13.70;5.75;;;;;;;;;;5056178;28;20497;-76
2023/05/19 08:38:46;;;;;;;19.55;7.20;;;;;;;;;;5055757;28;20030;-76
2023/05/19 08:41:13;;;;;;;14.35;5.55;;;;;;;;;;5058443;28;20037;-76
2023/05/19 08:43:39;;;;;;;17.73;6.15;;;;;;;;;;5053475;28;21775;-75
2023/05/19 08:46:06;;;;;;;14.52;5.40;;;;;;;;;;5049438;28;20118;-75
2023/05/19 08:48:34;;;;;;;21.33;6.22;;;;;;;;;;5060328;28;20040;-75
2023/05/19 08:51:19;;;;;;;18.45;5.65;;;;;;;;;;5061826;28;20087;-75
2023/05/19 08:53:49;;;;;;;14.23;4.93;;;;;;;;;;5060385;28;20097;-75
2023/05/19 08:56:23;;;;;;;18.23;6.18;;;;;;;;;;5053906;28;20433;-75
2023/05/19 08:58:50;;;;;;;18.05;5.75;;;;;;;;;;5059662;28;20032;-75
2023/05/19 09:01:16;;;;;;;21.02;6.45;;;;;;;;;;5058797;28;20016;-76
2023/05/19 09:03:43;;;;;;;14.95;5.60;;;;;;;;;;5062658;28;20031;-75
2023/05/19 09:06:13;;;;;;;18.85;5.75;;;;;;;;;;5059244;28;20119;-75
2023/05/19 09:08:39;;;;;;;14.32;6.75;;;;;;;;;;5060577;28;20430;-75
2023/05/19 09:11:06;;;;;;;23.05;6.00;;;;;;;;;;5061366;28;20357;-74
2023/05/19 09:13:32;;;;;;;18.42;6.07;;;;;;;;;;5060711;28;20470;-73
2023/05/19 09:15:59;;;;;;;18.63;5.35;;;;;;;;;;5061984;28;20304;-75
2023/05/19 09:18:26;;;;;;;14.00;5.68;;;;;;;;;;5062365;28;20024;-75
2023/05/19 09:20:59;;;;;;;15.05;5.65;;;;;;;;;;5062375;28;21798;-75
2023/05/19 09:23:27;;;;;;;17.52;6.45;;;;;;;;;;5062445;28;20055;-76
2023/05/19 09:25:53;;;;;;;22.45;6.28;;;;;;;;;;5060570;28;20367;-76
2023/05/19 09:28:46;;;;;;;14.98;5.63;;;;;;;;;;5059693;28;20035;-75
2023/05/19 09:31:12;;;;;;;12.98;5.28;;;;;;;;;;5053462;28;20048;-75
2023/05/19 09:33:39;;;;;;;15.75;5.53;;;;;;;;;;5059217;28;20490;-75
2023/05/19 09:36:07;;;;;;;26.83;14.13;;;;;;;;;;5063656;28;20028;-75
2023/05/19 09:38:34;;;;;;;19.35;8.70;;;;;;;;;;5056657;28;20109;-75
2023/05/19 09:41:00;;;;;;;18.92;6.65;;;;;;;;;;5062078;28;20390;-75
2023/05/19 09:43:27;;;;;;;13.43;5.13;;;;;;;;;;5057058;28;20032;-78
2023/05/19 09:45:55;;;;;;;17.35;7.72;;;;;;;;;;5063541;28;20027;-75
2023/05/19 09:48:21;;;;;;;14.95;6.10;;;;;;;;;;5057194;28;20413;-75
2023/05/19 09:50:50;;;;;;;18.60;6.03;;;;;;;;;;5053755;28;20082;-74
2023/05/19 09:53:17;;;;;;;25.42;5.95;;;;;;;;;;5062491;28;20024;-75
2023/05/19 09:55:43;;;;;;;15.43;5.65;;;;;;;;;;5048160;28;20052;-75
2023/05/19 09:58:09;;;;;;;16.27;5.82;;;;;;;;;;5057709;28;20017;-75
2023/05/19 10:00:35;;;;;;;22.73;6.50;;;;;;;;;;5055348;28;20029;-75
2023/05/19 10:03:03;;;;;;;19.92;5.80;;;;;;;;;;5060571;28;20144;-75
2023/05/19 10:05:30;;;;;;;18.00;5.93;;;;;;;;;;5063327;28;20059;-75
2023/05/19 10:07:56;;;;;;;18.33;6.50;;;;;;;;;;5056485;28;20431;-75
2023/05/19 10:10:22;;;;;;;16.15;6.07;;;;;;;;;;5061271;28;20040;-74
2023/05/19 10:12:49;;;;;;;18.63;5.43;;;;;;;;;;5061065;28;20526;-75
2023/05/19 10:15:15;;;;;;;15.65;5.50;;;;;;;;;;5061020;28;20383;-75
2023/05/19 10:17:42;;;;;;;18.25;5.22;;;;;;;;;;5056497;28;20120;-76
2023/05/19 10:20:13;;;;;;;20.30;6.38;;;;;;;;;;5061198;28;20411;-75
2023/05/19 10:22:40;;;;;;;16.63;6.32;;;;;;;;;;5052140;28;20556;-75
2023/05/19 10:25:06;;;;;;;14.23;5.20;;;;;;;;;;5059263;28;20398;-75
2023/05/19 10:27:34;;;;;;;14.75;4.57;;;;;;;;;;5062329;28;20032;-76
2023/05/19 10:30:04;;;;;;;14.50;5.65;;;;;;;;;;5061807;28;20032;-76
2023/05/19 10:32:31;;;;;;;15.48;5.60;;;;;;;;;;5064350;28;20013;-75
2023/05/19 10:34:58;;;;;;;16.85;6.72;;;;;;;;;;5060862;28;20033;-75
2023/05/19 10:37:34;;;;;;;13.85;5.72;;;;;;;;;;5059661;28;20061;-75
2023/05/19 10:40:04;;;;;;;12.65;5.85;;;;;;;;;;5060434;28;20421;-75
2023/05/19 10:42:37;;;;;;;11.98;4.63;;;;;;;;;;5062958;28;20025;-75
2023/05/19 10:45:10;;;;;;;14.75;4.95;;;;;;;;;;5060983;28;20032;-75
2023/05/19 10:47:36;;;;;;;9.80;4.60;;;;;;;;;;5061207;28;20506;-76
2023/05/19 10:50:05;;;;;;;16.08;5.53;;;;;;;;;;5061437;28;20102;-77
2023/05/19 10:52:36;;;;;;;13.13;6.00;;;;;;;;;;5060003;28;20033;-76
2023/05/19 10:55:03;;;;;;;11.77;5.78;;;;;;;;;;5063909;28;20103;-76
2023/05/19 10:57:33;;;;;;;13.60;4.45;;;;;;;;;;5062232;28;20028;-76
2023/05/19 11:00:09;;;;;;;13.27;5.82;;;;;;;;;;5065813;28;20077;-76
2023/05/19 11:02:36;;;;;;;14.23;4.43;;;;;;;;;;5061933;28;20111;-77
2023/05/19 11:05:13;;;;;;;22.13;5.78;;;;;;;;;;5062602;28;20039;-75
2023/05/19 11:07:44;;;;;;;13.52;4.60;;;;;;;;;;5066604;28;20482;-77
2023/05/19 11:10:11;;;;;;;16.90;5.05;;;;;;;;;;5059268;28;20524;-77
2023/05/19 11:12:42;;;;;;;12.13;4.75;;;;;;;;;;5059752;28;20021;-76
2023/05/19 11:15:17;;;;;;;9.90;5.15;;;;;;;;;;5063718;28;20024;-77
2023/05/19 11:17:47;;;;;;;15.52;5.43;;;;;;;;;;5060534;28;20036;-77
2023/05/19 11:20:24;;;;;;;12.65;5.05;;;;;;;;;;5060620;28;20032;-76
2023/05/19 11:23:05;;;;;;;12.48;4.68;;;;;;;;;;5054681;28;20097;-75
2023/05/19 11:25:48;;;;;;;14.55;5.05;;;;;;;;;;5051511;28;20037;-76
2023/05/19 11:28:33;;;;;;;11.85;5.10;;;;;;;;;;5057528;28;20071;-76
2023/05/19 11:31:01;;;;;;;14.85;7.10;;;;;;;;;;5055407;28;20032;-76
2023/05/19 11:33:27;;;;;;;14.15;5.07;;;;;;;;;;5057391;28;20043;-75
2023/05/19 11:35:56;;;;;;;8.90;4.43;;;;;;;;;;5053594;28;20043;-76
2023/05/19 11:38:22;;;;;;;10.63;4.43;;;;;;;;;;5059142;28;20402;-76
2023/05/19 11:40:48;;;;;;;15.32;5.28;;;;;;;;;;5057384;28;20077;-76
2023/05/19 11:43:15;;;;;;;9.80;5.20;;;;;;;;;;5059166;28;20056;-75
2023/05/19 11:45:41;;;;;;;15.23;4.88;;;;;;;;;;5052857;28;20509;-76
2023/05/19 11:48:11;;;;;;;11.60;5.03;;;;;;;;;;5060704;28;20056;-75
2023/05/19 11:50:40;;;;;;;14.13;4.80;;;;;;;;;;5058719;28;20032;-75
2023/05/19 11:53:07;;;;;;;16.65;5.55;;;;;;;;;;5064022;28;20051;-75
2023/05/19 11:55:33;;;;;;;14.60;4.72;;;;;;;;;;5053715;28;20025;-75
2023/05/19 11:58:00;;;;;;;17.35;4.20;;;;;;;;;;5056345;28;20040;-76
2023/05/19 12:00:27;;;;;;;14.65;5.43;;;;;;;;;;5056793;28;20029;-75
2023/05/19 12:02:53;;;;;;;9.90;4.50;;;;;;;;;;5054568;28;20482;-75
2023/05/19 12:05:23;;;;;;;14.82;5.22;;;;;;;;;;5059789;28;20024;-76
2023/05/19 12:07:50;;;;;;;9.77;4.13;;;;;;;;;;5061929;28;20080;-75
2023/05/19 12:10:42;;;;;;;13.35;5.63;;;;;;;;;;5061738;28;20021;-76
2023/05/19 12:13:09;;;;;;;12.00;5.15;;;;;;;;;;5056081;28;20410;-76
2023/05/19 12:15:35;;;;;;;12.98;5.72;;;;;;;;;;5050237;28;20067;-77
2023/05/19 12:18:01;;;;;;;12.43;4.35;;;;;;;;;;5056302;28;21105;-75
2023/05/19 12:20:30;;;;;;;11.13;4.18;;;;;;;;;;5051119;28;20433;-76
2023/05/19 12:22:57;;;;;;;12.20;4.90;;;;;;;;;;5054514;28;20684;-76
2023/05/19 12:25:23;;;;;;;11.80;5.60;;;;;;;;;;5056871;28;20510;-77
2023/05/19 12:27:51;;;;;;;13.30;4.80;;;;;;;;;;5056955;28;20690;-76
2023/05/19 12:30:18;;;;;;;13.57;4.63;;;;;;;;;;5059769;28;20399;-77
2023/05/19 12:32:45;;;;;;;11.00;4.68;;;;;;;;;;5062070;28;20036;-77
2023/05/19 12:35:12;;;;;;;10.60;4.65;;;;;;;;;;5061806;28;20049;-75
2023/05/19 12:37:41;;;;;;;13.10;4.43;;;;;;;;;;5057765;28;20025;-77
2023/05/19 12:40:08;;;;;;;13.82;5.05;;;;;;;;;;5052469;28;20044;-76
2023/05/19 12:42:34;;;;;;;10.90;5.18;;;;;;;;;;5064445;28;20480;-76
2023/05/19 12:45:04;;;;;;;12.05;4.88;;;;;;;;;;5067241;28;20051;-75
2023/05/19 12:47:32;;;;;;;10.73;4.43;;;;;;;;;;5064866;28;20500;-77
2023/05/19 12:49:59;;;;;;;13.90;5.43;;;;;;;;;;5060779;28;20033;-77
2023/05/19 12:52:26;;;;;;;13.52;4.45;;;;;;;;;;5062065;28;20032;-76
2023/05/19 12:55:05;;;;;;;10.65;4.32;;;;;;;;;;5056687;28;20021;-75
2023/05/19 12:57:34;;;;;;;12.32;4.43;;;;;;;;;;5058359;28;20029;-75
2023/05/19 13:00:05;;;;;;;7.65;5.13;;;;;;;;;;5068948;28;20032;-76
2023/05/19 13:02:35;;;;;;;12.80;4.80;;;;;;;;;;5057269;28;20044;-75
2023/05/19 13:05:03;;;;;;;11.35;5.05;;;;;;;;;;5063949;28;20497;-76
2023/05/19 13:07:29;;;;;;;9.60;4.20;;;;;;;;;;5067417;28;20033;-75
2023/05/19 13:09:56;;;;;;;9.82;4.88;;;;;;;;;;5061721;28;20036;-75
2023/05/19 13:12:22;;;;;;;10.85;4.68;;;;;;;;;;5064041;28;20466;-76
2023/05/19 13:14:48;;;;;;;10.07;3.78;;;;;;;;;;5063650;28;20446;-79
2023/05/19 13:17:14;;;;;;;7.30;4.55;;;;;;;;;;5057219;28;20052;-78
2023/05/19 13:19:40;;;;;;;10.82;3.85;;;;;;;;;;5059890;28;20028;-78
2023/05/19 13:22:07;;;;;;;9.93;4.75;;;;;;;;;;5054138;28;20125;-78
2023/05/19 13:24:33;;;;;;;12.85;3.92;;;;;;;;;;5058603;28;20052;-79
2023/05/19 13:26:59;;;;;;;9.77;4.13;;;;;;;;;;5062718;28;20305;-79
2023/05/19 13:29:27;;;;;;;8.18;4.28;;;;;;;;;;5064657;28;20536;-79
2023/05/19 13:31:53;;;;;;;11.60;4.50;;;;;;;;;;5061705;28;20431;-78
2023/05/19 13:34:28;;;;;;;10.68;4.30;;;;;;;;;;5061703;28;20514;-77
2023/05/19 13:36:55;;;;;;;8.95;4.47;;;;;;;;;;5064876;28;20230;-78
2023/05/19 13:39:21;;;;;;;11.65;4.38;;;;;;;;;;5064819;28;20075;-78
2023/05/19 13:41:47;;;;;;;9.02;4.63;;;;;;;;;;5058485;28;20036;-78
2023/05/19 13:44:13;;;;;;;11.38;5.22;;;;;;;;;;5076172;28;20476;-77
2023/05/19 13:46:39;;;;;;;11.93;5.53;;;;;;;;;;5061014;28;20048;-78
2023/05/19 13:49:08;;;;;;;11.63;4.10;;;;;;;;;;5063724;28;20028;-76
2023/05/19 13:51:34;;;;;;;17.08;4.57;;;;;;;;;;5061504;28;20035;-77
2023/05/19 13:54:01;;;;;;;11.18;5.03;;;;;;;;;;5061072;28;20470;-77
2023/05/19 13:56:28;;;;;;;12.00;4.93;;;;;;;;;;5058465;28;20031;-77
2023/05/19 13:58:57;;;;;;;13.73;5.50;;;;;;;;;;5046798;28;20032;-77
2023/05/19 14:01:23;;;;;;;8.68;4.40;;;;;;;;;;5056650;28;20033;-77
2023/05/19 14:03:49;;;;;;;12.07;4.05;;;;;;;;;;5058088;28;20040;-78
2023/05/19 14:06:16;;;;;;;8.43;4.63;;;;;;;;;;5063269;28;20234;-79
2023/05/19 14:08:43;;;;;;;11.05;4.50;;;;;;;;;;5064692;28;20031;-79
2023/05/19 14:11:09;;;;;;;10.38;4.40;;;;;;;;;;5059396;28;20032;-78
2023/05/19 14:13:35;;;;;;;8.60;4.95;;;;;;;;;;5053882;28;20029;-78
2023/05/19 14:16:01;;;;;;;6.63;4.35;;;;;;;;;;5056075;28;20036;-79
2023/05/19 14:18:27;;;;;;;8.52;4.50;;;;;;;;;;5057071;28;20053;-78
2023/05/19 14:20:53;;;;;;;12.25;4.30;;;;;;;;;;5058295;28;20031;-77
2023/05/19 14:23:20;;;;;;;8.52;4.35;;;;;;;;;;5062343;28;20479;-77
2023/05/19 14:25:46;;;;;;;10.50;5.05;;;;;;;;;;5056343;28;20374;-77
2023/05/19 14:28:12;;;;;;;11.50;4.93;;;;;;;;;;5063250;28;20032;-76
2023/05/19 14:30:40;;;;;;;10.95;4.25;;;;;;;;;;5056370;28;20427;-77
2023/05/19 14:33:06;;;;;;;10.68;4.20;;;;;;;;;;5061791;28;20030;-78